Terminal Aerodrome Forecast
Issued by NWS

Home | Current Version | Previous Version | Text Only | Print | Product List | Glossary On
Versions: 1 2 3 4 5 6 7 8 9 10 11 12 13
000
FTAK31 PAJN 201100 RRA
TAFAGY
TAF
PAGY 201142Z 2012/2112 04015G30KT P6SM OVC080
     FM201800 04020G35KT P6SM OVC060
     FM210000 03015G25KT P6SM VCSH OVC050
      AMD LTD TO CLD VIS AND WIND=

USA.gov is the U.S. government's official web portal to all federal, state and local government web resources and services.